sensor_id;sensor_type;location;lat;lon;timestamp;P1;durP1;ratioP1;P2;durP2;ratioP2
71639;SDS011;60912;48.968;10.124;2022-07-10T00:01:22;4.47;;;2.83;;
71639;SDS011;60912;48.968;10.124;2022-07-10T00:03:48;5.43;;;3.10;;
71639;SDS011;60912;48.968;10.124;2022-07-10T00:06:15;4.60;;;2.80;;
71639;SDS011;60912;48.968;10.124;2022-07-10T00:08:43;4.63;;;2.58;;
71639;SDS011;60912;48.968;10.124;2022-07-10T00:11:08;5.30;;;3.10;;
71639;SDS011;60912;48.968;10.124;2022-07-10T00:13:34;4.07;;;2.90;;
71639;SDS011;60912;48.968;10.124;2022-07-10T00:16:00;4.67;;;2.90;;
71639;SDS011;60912;48.968;10.124;2022-07-10T00:18:27;4.65;;;2.90;;
71639;SDS011;60912;48.968;10.124;2022-07-10T00:20:55;5.18;;;2.92;;
71639;SDS011;60912;48.968;10.124;2022-07-10T00:23:20;6.13;;;3.30;;
71639;SDS011;60912;48.968;10.124;2022-07-10T00:25:46;4.87;;;3.07;;
71639;SDS011;60912;48.968;10.124;2022-07-10T00:28:12;4.47;;;3.20;;
71639;SDS011;60912;48.968;10.124;2022-07-10T00:30:37;5.13;;;3.10;;
71639;SDS011;60912;48.968;10.124;2022-07-10T00:33:03;4.60;;;2.90;;
71639;SDS011;60912;48.968;10.124;2022-07-10T00:35:29;4.23;;;3.23;;
71639;SDS011;60912;48.968;10.124;2022-07-10T00:37:54;4.70;;;3.20;;
71639;SDS011;60912;48.968;10.124;2022-07-10T00:40:20;4.57;;;3.20;;
71639;SDS011;60912;48.968;10.124;2022-07-10T00:42:45;5.30;;;3.13;;
71639;SDS011;60912;48.968;10.124;2022-07-10T00:45:11;6.13;;;3.10;;
71639;SDS011;60912;48.968;10.124;2022-07-10T00:47:37;5.50;;;3.50;;
71639;SDS011;60912;48.968;10.124;2022-07-10T00:50:03;6.60;;;3.63;;
71639;SDS011;60912;48.968;10.124;2022-07-10T00:52:29;4.95;;;3.75;;
71639;SDS011;60912;48.968;10.124;2022-07-10T00:54:55;5.27;;;3.77;;
71639;SDS011;60912;48.968;10.124;2022-07-10T00:57:21;5.35;;;3.75;;
71639;SDS011;60912;48.968;10.124;2022-07-10T00:59:47;5.22;;;3.90;;
71639;SDS011;60912;48.968;10.124;2022-07-10T01:02:14;5.40;;;4.00;;
71639;SDS011;60912;48.968;10.124;2022-07-10T01:04:41;5.68;;;4.00;;
71639;SDS011;60912;48.968;10.124;2022-07-10T01:07:06;8.00;;;4.30;;
71639;SDS011;60912;48.968;10.124;2022-07-10T01:09:32;5.63;;;4.00;;
71639;SDS011;60912;48.968;10.124;2022-07-10T01:11:59;6.43;;;4.20;;
71639;SDS011;60912;48.968;10.124;2022-07-10T01:14:25;5.93;;;4.35;;
71639;SDS011;60912;48.968;10.124;2022-07-10T01:16:51;6.17;;;4.30;;
71639;SDS011;60912;48.968;10.124;2022-07-10T01:19:18;4.93;;;4.00;;
71639;SDS011;60912;48.968;10.124;2022-07-10T01:21:44;8.20;;;4.75;;
71639;SDS011;60912;48.968;10.124;2022-07-10T01:24:10;6.50;;;3.97;;
71639;SDS011;60912;48.968;10.124;2022-07-10T01:26:36;6.05;;;4.22;;
71639;SDS011;60912;48.968;10.124;2022-07-10T01:29:03;5.53;;;3.95;;
71639;SDS011;60912;48.968;10.124;2022-07-10T01:31:30;6.20;;;4.13;;
71639;SDS011;60912;48.968;10.124;2022-07-10T01:33:56;6.50;;;4.05;;
71639;SDS011;60912;48.968;10.124;2022-07-10T01:36:22;7.82;;;4.53;;
71639;SDS011;60912;48.968;10.124;2022-07-10T01:38:48;5.67;;;4.40;;
71639;SDS011;60912;48.968;10.124;2022-07-10T01:41:16;5.35;;;4.05;;
71639;SDS011;60912;48.968;10.124;2022-07-10T01:43:41;6.27;;;5.00;;
71639;SDS011;60912;48.968;10.124;2022-07-10T01:46:09;6.40;;;4.60;;
71639;SDS011;60912;48.968;10.124;2022-07-10T01:48:36;5.80;;;4.78;;
71639;SDS011;60912;48.968;10.124;2022-07-10T01:51:02;7.97;;;4.63;;
71639;SDS011;60912;48.968;10.124;2022-07-10T01:53:27;8.03;;;4.97;;
71639;SDS011;60912;48.968;10.124;2022-07-10T01:55:52;6.20;;;4.60;;
71639;SDS011;60912;48.968;10.124;2022-07-10T01:58:18;5.97;;;4.43;;
71639;SDS011;60912;48.968;10.124;2022-07-10T02:00:43;6.38;;;5.10;;
71639;SDS011;60912;48.968;10.124;2022-07-10T02:03:10;7.77;;;5.23;;
71639;SDS011;60912;48.968;10.124;2022-07-10T02:05:54;7.68;;;5.63;;
71639;SDS011;60912;48.968;10.124;2022-07-10T02:08:19;6.23;;;5.03;;
71639;SDS011;60912;48.968;10.124;2022-07-10T02:10:44;6.45;;;5.38;;
71639;SDS011;60912;48.968;10.124;2022-07-10T02:13:10;7.10;;;5.33;;
71639;SDS011;60912;48.968;10.124;2022-07-10T02:15:36;7.10;;;5.10;;
71639;SDS011;60912;48.968;10.124;2022-07-10T02:18:02;9.03;;;5.60;;
71639;SDS011;60912;48.968;10.124;2022-07-10T02:20:27;7.90;;;5.17;;
71639;SDS011;60912;48.968;10.124;2022-07-10T02:22:52;8.93;;;5.17;;
71639;SDS011;60912;48.968;10.124;2022-07-10T02:25:18;6.43;;;5.03;;
71639;SDS011;60912;48.968;10.124;2022-07-10T02:27:43;7.10;;;5.50;;
71639;SDS011;60912;48.968;10.124;2022-07-10T02:30:09;7.37;;;5.73;;
71639;SDS011;60912;48.968;10.124;2022-07-10T02:32:34;6.13;;;5.27;;
71639;SDS011;60912;48.968;10.124;2022-07-10T02:34:59;9.00;;;5.83;;
71639;SDS011;60912;48.968;10.124;2022-07-10T02:37:25;8.87;;;5.33;;
71639;SDS011;60912;48.968;10.124;2022-07-10T02:39:50;6.73;;;5.83;;
71639;SDS011;60912;48.968;10.124;2022-07-10T02:42:16;9.73;;;6.60;;
71639;SDS011;60912;48.968;10.124;2022-07-10T02:44:41;9.77;;;5.87;;
71639;SDS011;60912;48.968;10.124;2022-07-10T02:47:06;9.20;;;6.40;;
71639;SDS011;60912;48.968;10.124;2022-07-10T02:49:32;7.50;;;5.77;;
71639;SDS011;60912;48.968;10.124;2022-07-10T02:51:58;7.57;;;5.35;;
71639;SDS011;60912;48.968;10.124;2022-07-10T02:54:23;7.33;;;6.13;;
71639;SDS011;60912;48.968;10.124;2022-07-10T02:56:49;7.83;;;5.63;;
71639;SDS011;60912;48.968;10.124;2022-07-10T02:59:15;8.50;;;6.15;;
71639;SDS011;60912;48.968;10.124;2022-07-10T03:01:41;8.83;;;5.73;;
71639;SDS011;60912;48.968;10.124;2022-07-10T03:04:07;12.00;;;5.90;;
71639;SDS011;60912;48.968;10.124;2022-07-10T03:06:33;9.80;;;6.40;;
71639;SDS011;60912;48.968;10.124;2022-07-10T03:08:58;7.03;;;5.67;;
71639;SDS011;60912;48.968;10.124;2022-07-10T03:11:23;7.07;;;5.70;;
71639;SDS011;60912;48.968;10.124;2022-07-10T03:13:49;7.93;;;5.87;;
71639;SDS011;60912;48.968;10.124;2022-07-10T03:16:14;7.37;;;5.87;;
71639;SDS011;60912;48.968;10.124;2022-07-10T03:18:40;7.60;;;5.68;;
71639;SDS011;60912;48.968;10.124;2022-07-10T03:21:05;7.97;;;5.47;;
71639;SDS011;60912;48.968;10.124;2022-07-10T03:23:31;8.93;;;5.53;;
71639;SDS011;60912;48.968;10.124;2022-07-10T03:25:56;11.97;;;6.37;;
71639;SDS011;60912;48.968;10.124;2022-07-10T03:28:21;9.37;;;5.83;;
71639;SDS011;60912;48.968;10.124;2022-07-10T03:30:47;8.13;;;6.20;;
71639;SDS011;60912;48.968;10.124;2022-07-10T03:33:12;7.47;;;5.75;;
71639;SDS011;60912;48.968;10.124;2022-07-10T03:35:37;8.53;;;5.63;;
71639;SDS011;60912;48.968;10.124;2022-07-10T03:38:03;8.37;;;5.90;;
71639;SDS011;60912;48.968;10.124;2022-07-10T03:40:28;9.27;;;6.60;;
71639;SDS011;60912;48.968;10.124;2022-07-10T03:42:54;8.57;;;5.83;;
71639;SDS011;60912;48.968;10.124;2022-07-10T03:45:19;7.55;;;5.40;;
71639;SDS011;60912;48.968;10.124;2022-07-10T03:47:45;7.53;;;5.60;;
71639;SDS011;60912;48.968;10.124;2022-07-10T03:50:10;11.37;;;7.07;;
71639;SDS011;60912;48.968;10.124;2022-07-10T03:52:36;8.35;;;6.45;;
71639;SDS011;60912;48.968;10.124;2022-07-10T03:55:01;8.70;;;6.50;;
71639;SDS011;60912;48.968;10.124;2022-07-10T03:57:27;7.65;;;5.70;;
71639;SDS011;60912;48.968;10.124;2022-07-10T04:00:12;8.88;;;6.20;;
71639;SDS011;60912;48.968;10.124;2022-07-10T04:02:39;8.93;;;5.73;;
71639;SDS011;60912;48.968;10.124;2022-07-10T04:05:07;9.35;;;6.03;;
71639;SDS011;60912;48.968;10.124;2022-07-10T04:07:34;9.55;;;6.78;;
71639;SDS011;60912;48.968;10.124;2022-07-10T04:10:00;8.48;;;5.57;;
71639;SDS011;60912;48.968;10.124;2022-07-10T04:12:27;7.90;;;5.70;;
71639;SDS011;60912;48.968;10.124;2022-07-10T04:14:52;7.73;;;5.70;;
71639;SDS011;60912;48.968;10.124;2022-07-10T04:17:18;8.90;;;5.57;;
71639;SDS011;60912;48.968;10.124;2022-07-10T04:19:43;8.60;;;6.28;;
71639;SDS011;60912;48.968;10.124;2022-07-10T04:22:09;8.83;;;5.80;;
71639;SDS011;60912;48.968;10.124;2022-07-10T04:24:35;10.05;;;5.13;;
71639;SDS011;60912;48.968;10.124;2022-07-10T04:27:01;8.53;;;5.40;;
71639;SDS011;60912;48.968;10.124;2022-07-10T04:29:27;9.52;;;5.20;;
71639;SDS011;60912;48.968;10.124;2022-07-10T04:31:52;6.63;;;4.60;;
71639;SDS011;60912;48.968;10.124;2022-07-10T04:34:18;8.30;;;5.23;;
71639;SDS011;60912;48.968;10.124;2022-07-10T04:36:43;7.22;;;5.30;;
71639;SDS011;60912;48.968;10.124;2022-07-10T04:39:08;7.83;;;5.10;;
71639;SDS011;60912;48.968;10.124;2022-07-10T04:41:34;10.67;;;5.80;;
71639;SDS011;60912;48.968;10.124;2022-07-10T04:43:59;8.85;;;5.53;;
71639;SDS011;60912;48.968;10.124;2022-07-10T04:46:25;9.27;;;4.83;;
71639;SDS011;60912;48.968;10.124;2022-07-10T04:48:50;8.73;;;4.93;;
71639;SDS011;60912;48.968;10.124;2022-07-10T04:51:16;8.35;;;5.20;;
71639;SDS011;60912;48.968;10.124;2022-07-10T04:53:42;7.20;;;4.70;;
71639;SDS011;60912;48.968;10.124;2022-07-10T04:56:08;6.43;;;4.60;;
71639;SDS011;60912;48.968;10.124;2022-07-10T04:58:34;8.13;;;4.73;;
71639;SDS011;60912;48.968;10.124;2022-07-10T05:00:59;7.70;;;4.20;;
71639;SDS011;60912;48.968;10.124;2022-07-10T05:03:25;7.40;;;4.20;;
71639;SDS011;60912;48.968;10.124;2022-07-10T05:05:50;6.27;;;4.00;;
71639;SDS011;60912;48.968;10.124;2022-07-10T05:08:15;8.07;;;4.17;;
71639;SDS011;60912;48.968;10.124;2022-07-10T05:10:41;8.10;;;4.20;;
71639;SDS011;60912;48.968;10.124;2022-07-10T05:13:06;10.17;;;4.30;;
71639;SDS011;60912;48.968;10.124;2022-07-10T05:15:32;6.32;;;4.03;;
71639;SDS011;60912;48.968;10.124;2022-07-10T05:17:57;10.67;;;4.87;;
71639;SDS011;60912;48.968;10.124;2022-07-10T05:20:22;8.70;;;3.80;;
71639;SDS011;60912;48.968;10.124;2022-07-10T05:22:48;7.53;;;4.50;;
71639;SDS011;60912;48.968;10.124;2022-07-10T05:25:13;10.47;;;4.47;;
71639;SDS011;60912;48.968;10.124;2022-07-10T05:27:39;6.73;;;3.97;;
71639;SDS011;60912;48.968;10.124;2022-07-10T05:30:04;6.63;;;4.33;;
71639;SDS011;60912;48.968;10.124;2022-07-10T05:32:30;8.10;;;3.88;;
71639;SDS011;60912;48.968;10.124;2022-07-10T05:34:59;8.00;;;3.57;;
71639;SDS011;60912;48.968;10.124;2022-07-10T05:37:24;6.22;;;3.45;;
71639;SDS011;60912;48.968;10.124;2022-07-10T05:39:49;8.73;;;3.80;;
71639;SDS011;60912;48.968;10.124;2022-07-10T05:42:15;8.23;;;3.10;;
71639;SDS011;60912;48.968;10.124;2022-07-10T05:44:40;6.90;;;3.35;;
71639;SDS011;60912;48.968;10.124;2022-07-10T05:47:05;8.17;;;3.40;;
71639;SDS011;60912;48.968;10.124;2022-07-10T05:49:32;8.35;;;3.00;;
71639;SDS011;60912;48.968;10.124;2022-07-10T05:51:57;7.13;;;3.40;;
71639;SDS011;60912;48.968;10.124;2022-07-10T05:54:23;6.18;;;2.72;;
71639;SDS011;60912;48.968;10.124;2022-07-10T05:56:48;7.53;;;2.87;;
71639;SDS011;60912;48.968;10.124;2022-07-10T05:59:14;8.47;;;3.10;;
71639;SDS011;60912;48.968;10.124;2022-07-10T06:01:39;6.60;;;2.83;;
71639;SDS011;60912;48.968;10.124;2022-07-10T06:04:05;10.00;;;2.90;;
71639;SDS011;60912;48.968;10.124;2022-07-10T06:06:31;6.07;;;2.63;;
71639;SDS011;60912;48.968;10.124;2022-07-10T06:08:56;7.57;;;2.40;;
71639;SDS011;60912;48.968;10.124;2022-07-10T06:11:21;7.00;;;2.40;;
71639;SDS011;60912;48.968;10.124;2022-07-10T06:13:47;8.30;;;2.60;;
71639;SDS011;60912;48.968;10.124;2022-07-10T06:16:12;8.43;;;2.60;;
71639;SDS011;60912;48.968;10.124;2022-07-10T06:18:37;7.70;;;2.40;;
71639;SDS011;60912;48.968;10.124;2022-07-10T06:21:03;7.10;;;2.23;;
71639;SDS011;60912;48.968;10.124;2022-07-10T06:23:29;7.00;;;2.10;;
71639;SDS011;60912;48.968;10.124;2022-07-10T06:25:54;9.60;;;2.00;;
71639;SDS011;60912;48.968;10.124;2022-07-10T06:28:20;4.67;;;1.80;;
71639;SDS011;60912;48.968;10.124;2022-07-10T06:30:46;5.35;;;1.70;;
71639;SDS011;60912;48.968;10.124;2022-07-10T06:33:12;5.70;;;1.80;;
71639;SDS011;60912;48.968;10.124;2022-07-10T06:35:37;6.47;;;1.70;;
71639;SDS011;60912;48.968;10.124;2022-07-10T06:38:03;7.50;;;1.87;;
71639;SDS011;60912;48.968;10.124;2022-07-10T06:40:28;5.83;;;1.60;;
71639;SDS011;60912;48.968;10.124;2022-07-10T06:42:54;5.15;;;1.60;;
71639;SDS011;60912;48.968;10.124;2022-07-10T06:45:20;6.88;;;1.60;;
71639;SDS011;60912;48.968;10.124;2022-07-10T06:47:46;5.80;;;1.45;;
71639;SDS011;60912;48.968;10.124;2022-07-10T06:50:21;4.45;;;1.40;;
71639;SDS011;60912;48.968;10.124;2022-07-10T06:52:48;6.20;;;1.50;;
71639;SDS011;60912;48.968;10.124;2022-07-10T06:55:13;3.60;;;1.40;;
71639;SDS011;60912;48.968;10.124;2022-07-10T06:57:39;6.68;;;1.88;;
71639;SDS011;60912;48.968;10.124;2022-07-10T07:00:05;7.17;;;1.60;;
71639;SDS011;60912;48.968;10.124;2022-07-10T07:02:31;6.40;;;1.42;;
71639;SDS011;60912;48.968;10.124;2022-07-10T07:04:57;5.50;;;1.30;;
71639;SDS011;60912;48.968;10.124;2022-07-10T07:07:22;5.63;;;1.58;;
71639;SDS011;60912;48.968;10.124;2022-07-10T07:09:48;4.57;;;1.40;;
71639;SDS011;60912;48.968;10.124;2022-07-10T07:12:15;4.75;;;1.38;;
71639;SDS011;60912;48.968;10.124;2022-07-10T07:14:41;5.07;;;1.40;;
71639;SDS011;60912;48.968;10.124;2022-07-10T07:17:07;5.87;;;1.40;;
71639;SDS011;60912;48.968;10.124;2022-07-10T07:19:34;4.65;;;1.30;;
71639;SDS011;60912;48.968;10.124;2022-07-10T07:22:22;4.57;;;1.30;;
71639;SDS011;60912;48.968;10.124;2022-07-10T07:25:07;5.65;;;1.20;;
71639;SDS011;60912;48.968;10.124;2022-07-10T07:27:34;4.57;;;1.10;;
71639;SDS011;60912;48.968;10.124;2022-07-10T07:30:03;4.40;;;1.10;;
71639;SDS011;60912;48.968;10.124;2022-07-10T07:32:31;3.60;;;0.93;;
71639;SDS011;60912;48.968;10.124;2022-07-10T07:34:56;5.50;;;1.03;;
71639;SDS011;60912;48.968;10.124;2022-07-10T07:37:22;5.00;;;1.13;;
71639;SDS011;60912;48.968;10.124;2022-07-10T07:39:49;5.40;;;0.90;;
71639;SDS011;60912;48.968;10.124;2022-07-10T07:42:14;3.23;;;0.90;;
71639;SDS011;60912;48.968;10.124;2022-07-10T07:44:40;5.17;;;1.00;;
71639;SDS011;60912;48.968;10.124;2022-07-10T07:47:05;3.75;;;0.98;;
71639;SDS011;60912;48.968;10.124;2022-07-10T07:49:30;4.10;;;1.20;;
71639;SDS011;60912;48.968;10.124;2022-07-10T07:51:56;5.97;;;1.20;;
71639;SDS011;60912;48.968;10.124;2022-07-10T07:54:21;3.87;;;1.00;;
71639;SDS011;60912;48.968;10.124;2022-07-10T07:56:46;6.77;;;1.17;;
71639;SDS011;60912;48.968;10.124;2022-07-10T07:59:12;6.32;;;1.10;;
71639;SDS011;60912;48.968;10.124;2022-07-10T08:01:37;7.50;;;1.20;;
71639;SDS011;60912;48.968;10.124;2022-07-10T08:04:04;4.22;;;1.00;;
71639;SDS011;60912;48.968;10.124;2022-07-10T08:06:29;3.67;;;1.10;;
71639;SDS011;60912;48.968;10.124;2022-07-10T08:08:55;4.13;;;1.13;;
71639;SDS011;60912;48.968;10.124;2022-07-10T08:11:20;6.40;;;1.00;;
71639;SDS011;60912;48.968;10.124;2022-07-10T08:13:45;9.07;;;1.27;;
71639;SDS011;60912;48.968;10.124;2022-07-10T08:16:11;6.30;;;1.10;;
71639;SDS011;60912;48.968;10.124;2022-07-10T08:18:36;5.40;;;1.17;;
71639;SDS011;60912;48.968;10.124;2022-07-10T08:21:02;4.20;;;1.20;;
71639;SDS011;60912;48.968;10.124;2022-07-10T08:23:28;3.70;;;0.90;;
71639;SDS011;60912;48.968;10.124;2022-07-10T08:25:53;4.22;;;1.08;;
71639;SDS011;60912;48.968;10.124;2022-07-10T08:28:19;3.93;;;0.93;;
71639;SDS011;60912;48.968;10.124;2022-07-10T08:30:45;6.00;;;1.00;;
71639;SDS011;60912;48.968;10.124;2022-07-10T08:33:11;4.47;;;1.17;;
71639;SDS011;60912;48.968;10.124;2022-07-10T08:35:36;5.33;;;1.30;;
71639;SDS011;60912;48.968;10.124;2022-07-10T08:38:03;4.90;;;1.00;;
71639;SDS011;60912;48.968;10.124;2022-07-10T08:40:33;4.78;;;1.10;;
71639;SDS011;60912;48.968;10.124;2022-07-10T08:43:03;4.55;;;0.98;;
71639;SDS011;60912;48.968;10.124;2022-07-10T08:45:30;3.78;;;1.05;;
71639;SDS011;60912;48.968;10.124;2022-07-10T08:47:57;2.57;;;0.90;;
71639;SDS011;60912;48.968;10.124;2022-07-10T08:50:32;4.65;;;1.25;;
71639;SDS011;60912;48.968;10.124;2022-07-10T08:55:26;5.88;;;0.93;;
71639;SDS011;60912;48.968;10.124;2022-07-10T08:57:53;6.17;;;1.20;;
71639;SDS011;60912;48.968;10.124;2022-07-10T09:00:21;4.70;;;1.13;;
71639;SDS011;60912;48.968;10.124;2022-07-10T09:02:47;3.85;;;1.10;;
71639;SDS011;60912;48.968;10.124;2022-07-10T09:05:12;3.43;;;0.90;;
71639;SDS011;60912;48.968;10.124;2022-07-10T09:07:37;3.27;;;0.90;;
71639;SDS011;60912;48.968;10.124;2022-07-10T09:10:08;3.60;;;0.95;;
71639;SDS011;60912;48.968;10.124;2022-07-10T09:15:18;4.30;;;1.00;;
71639;SDS011;60912;48.968;10.124;2022-07-10T09:17:54;6.22;;;1.00;;
71639;SDS011;60912;48.968;10.124;2022-07-10T09:20:35;5.07;;;0.90;;
71639;SDS011;60912;48.968;10.124;2022-07-10T09:25:41;3.60;;;0.82;;
71639;SDS011;60912;48.968;10.124;2022-07-10T09:28:07;2.60;;;0.80;;
71639;SDS011;60912;48.968;10.124;2022-07-10T09:36:04;4.57;;;1.08;;
71639;SDS011;60912;48.968;10.124;2022-07-10T09:43:43;3.43;;;0.73;;
71639;SDS011;60912;48.968;10.124;2022-07-10T09:46:08;2.75;;;0.88;;
71639;SDS011;60912;48.968;10.124;2022-07-10T09:48:34;4.70;;;1.00;;
71639;SDS011;60912;48.968;10.124;2022-07-10T09:50:59;3.60;;;0.80;;
71639;SDS011;60912;48.968;10.124;2022-07-10T09:53:24;2.33;;;0.83;;
71639;SDS011;60912;48.968;10.124;2022-07-10T09:55:51;4.40;;;0.80;;
71639;SDS011;60912;48.968;10.124;2022-07-10T09:58:16;4.77;;;1.10;;
71639;SDS011;60912;48.968;10.124;2022-07-10T10:00:44;3.22;;;0.80;;
71639;SDS011;60912;48.968;10.124;2022-07-10T10:03:11;4.70;;;0.80;;
71639;SDS011;60912;48.968;10.124;2022-07-10T10:05:38;5.13;;;0.90;;
71639;SDS011;60912;48.968;10.124;2022-07-10T10:08:25;3.38;;;0.90;;
71639;SDS011;60912;48.968;10.124;2022-07-10T10:10:57;3.53;;;0.85;;
71639;SDS011;60912;48.968;10.124;2022-07-10T10:13:25;3.58;;;0.80;;
71639;SDS011;60912;48.968;10.124;2022-07-10T10:15:55;3.95;;;0.80;;
71639;SDS011;60912;48.968;10.124;2022-07-10T10:18:22;3.07;;;0.80;;
71639;SDS011;60912;48.968;10.124;2022-07-10T10:20:49;3.42;;;0.80;;
71639;SDS011;60912;48.968;10.124;2022-07-10T10:23:17;4.15;;;0.80;;
71639;SDS011;60912;48.968;10.124;2022-07-10T10:25:47;2.67;;;0.93;;
71639;SDS011;60912;48.968;10.124;2022-07-10T10:28:17;3.58;;;0.80;;
71639;SDS011;60912;48.968;10.124;2022-07-10T10:30:48;3.33;;;0.70;;
71639;SDS011;60912;48.968;10.124;2022-07-10T10:36:02;5.32;;;0.90;;
71639;SDS011;60912;48.968;10.124;2022-07-10T10:41:25;3.15;;;0.80;;
71639;SDS011;60912;48.968;10.124;2022-07-10T10:49:16;2.75;;;0.90;;
71639;SDS011;60912;48.968;10.124;2022-07-10T10:54:59;4.18;;;0.90;;
71639;SDS011;60912;48.968;10.124;2022-07-10T10:57:20;1.90;;;0.70;;
71639;SDS011;60912;48.968;10.124;2022-07-10T11:02:31;3.30;;;0.80;;
71639;SDS011;60912;48.968;10.124;2022-07-10T11:05:44;4.35;;;0.85;;
71639;SDS011;60912;48.968;10.124;2022-07-10T11:10:31;3.03;;;0.73;;
71639;SDS011;60912;48.968;10.124;2022-07-10T11:13:10;4.00;;;0.80;;
71639;SDS011;60912;48.968;10.124;2022-07-10T11:15:41;2.93;;;0.80;;
71639;SDS011;60912;48.968;10.124;2022-07-10T11:20:43;3.45;;;0.90;;
71639;SDS011;60912;48.968;10.124;2022-07-10T11:26:44;4.13;;;0.77;;
71639;SDS011;60912;48.968;10.124;2022-07-10T11:29:04;2.50;;;0.80;;
71639;SDS011;60912;48.968;10.124;2022-07-10T11:31:31;5.10;;;0.80;;
71639;SDS011;60912;48.968;10.124;2022-07-10T11:34:03;5.13;;;0.80;;
71639;SDS011;60912;48.968;10.124;2022-07-10T11:36:28;3.67;;;0.80;;
71639;SDS011;60912;48.968;10.124;2022-07-10T11:39:01;2.20;;;0.77;;
71639;SDS011;60912;48.968;10.124;2022-07-10T11:41:27;3.58;;;0.77;;
71639;SDS011;60912;48.968;10.124;2022-07-10T11:46:24;3.08;;;0.70;;
71639;SDS011;60912;48.968;10.124;2022-07-10T11:48:51;6.07;;;0.80;;
71639;SDS011;60912;48.968;10.124;2022-07-10T11:51:30;2.08;;;0.63;;
71639;SDS011;60912;48.968;10.124;2022-07-10T11:54:10;2.58;;;0.80;;
71639;SDS011;60912;48.968;10.124;2022-07-10T11:56:40;3.13;;;0.80;;
71639;SDS011;60912;48.968;10.124;2022-07-10T11:59:13;3.38;;;0.82;;
71639;SDS011;60912;48.968;10.124;2022-07-10T12:01:43;3.10;;;0.80;;
71639;SDS011;60912;48.968;10.124;2022-07-10T12:04:14;3.35;;;0.98;;
71639;SDS011;60912;48.968;10.124;2022-07-10T12:06:42;3.58;;;0.75;;
71639;SDS011;60912;48.968;10.124;2022-07-10T12:09:09;3.47;;;0.90;;
71639;SDS011;60912;48.968;10.124;2022-07-10T12:11:36;3.28;;;0.90;;
71639;SDS011;60912;48.968;10.124;2022-07-10T12:14:15;4.70;;;1.00;;
71639;SDS011;60912;48.968;10.124;2022-07-10T12:16:49;2.72;;;0.60;;
71639;SDS011;60912;48.968;10.124;2022-07-10T12:19:40;3.97;;;0.60;;
71639;SDS011;60912;48.968;10.124;2022-07-10T12:22:04;2.33;;;0.60;;
71639;SDS011;60912;48.968;10.124;2022-07-10T12:24:31;3.15;;;0.70;;
71639;SDS011;60912;48.968;10.124;2022-07-10T12:26:57;3.97;;;0.80;;
71639;SDS011;60912;48.968;10.124;2022-07-10T12:29:26;3.58;;;0.70;;
71639;SDS011;60912;48.968;10.124;2022-07-10T12:31:54;2.08;;;0.63;;
71639;SDS011;60912;48.968;10.124;2022-07-10T12:34:40;3.27;;;1.00;;
71639;SDS011;60912;48.968;10.124;2022-07-10T12:37:12;2.92;;;0.70;;
71639;SDS011;60912;48.968;10.124;2022-07-10T12:39:46;3.20;;;0.77;;
71639;SDS011;60912;48.968;10.124;2022-07-10T12:42:28;4.32;;;0.95;;
71639;SDS011;60912;48.968;10.124;2022-07-10T12:44:54;3.00;;;0.65;;
71639;SDS011;60912;48.968;10.124;2022-07-10T12:47:47;3.90;;;0.87;;
71639;SDS011;60912;48.968;10.124;2022-07-10T12:50:13;4.25;;;0.90;;
71639;SDS011;60912;48.968;10.124;2022-07-10T12:52:41;5.15;;;1.00;;
71639;SDS011;60912;48.968;10.124;2022-07-10T13:00:32;2.60;;;0.73;;
71639;SDS011;60912;48.968;10.124;2022-07-10T13:10:51;3.63;;;1.00;;
71639;SDS011;60912;48.968;10.124;2022-07-10T13:13:17;3.35;;;1.45;;
71639;SDS011;60912;48.968;10.124;2022-07-10T13:15:43;3.17;;;1.37;;
71639;SDS011;60912;48.968;10.124;2022-07-10T13:18:15;3.88;;;1.52;;
71639;SDS011;60912;48.968;10.124;2022-07-10T13:20:43;3.92;;;0.93;;
71639;SDS011;60912;48.968;10.124;2022-07-10T13:23:09;2.95;;;0.70;;
71639;SDS011;60912;48.968;10.124;2022-07-10T13:25:36;2.87;;;0.80;;
71639;SDS011;60912;48.968;10.124;2022-07-10T13:28:03;3.75;;;0.80;;
71639;SDS011;60912;48.968;10.124;2022-07-10T13:30:28;2.97;;;0.60;;
71639;SDS011;60912;48.968;10.124;2022-07-10T13:32:54;3.60;;;0.70;;
71639;SDS011;60912;48.968;10.124;2022-07-10T13:35:19;5.15;;;0.70;;
71639;SDS011;60912;48.968;10.124;2022-07-10T13:37:45;3.43;;;0.70;;
71639;SDS011;60912;48.968;10.124;2022-07-10T13:40:11;2.63;;;0.70;;
71639;SDS011;60912;48.968;10.124;2022-07-10T13:42:37;4.37;;;0.80;;
71639;SDS011;60912;48.968;10.124;2022-07-10T13:45:02;2.87;;;0.70;;
71639;SDS011;60912;48.968;10.124;2022-07-10T13:47:28;2.45;;;0.70;;
71639;SDS011;60912;48.968;10.124;2022-07-10T13:49:54;3.87;;;0.70;;
71639;SDS011;60912;48.968;10.124;2022-07-10T13:52:19;2.35;;;0.70;;
71639;SDS011;60912;48.968;10.124;2022-07-10T13:54:45;2.17;;;0.60;;
71639;SDS011;60912;48.968;10.124;2022-07-10T13:57:10;4.97;;;0.88;;
71639;SDS011;60912;48.968;10.124;2022-07-10T13:59:36;3.57;;;0.70;;
71639;SDS011;60912;48.968;10.124;2022-07-10T14:02:02;7.07;;;0.80;;
71639;SDS011;60912;48.968;10.124;2022-07-10T14:04:27;4.03;;;0.70;;
71639;SDS011;60912;48.968;10.124;2022-07-10T14:06:53;3.77;;;0.80;;
71639;SDS011;60912;48.968;10.124;2022-07-10T14:09:19;3.78;;;0.80;;
71639;SDS011;60912;48.968;10.124;2022-07-10T14:11:47;2.78;;;0.80;;
71639;SDS011;60912;48.968;10.124;2022-07-10T14:14:13;2.87;;;0.80;;
71639;SDS011;60912;48.968;10.124;2022-07-10T14:16:38;3.20;;;0.80;;
71639;SDS011;60912;48.968;10.124;2022-07-10T14:19:04;5.10;;;0.90;;
71639;SDS011;60912;48.968;10.124;2022-07-10T14:21:29;4.07;;;0.80;;
71639;SDS011;60912;48.968;10.124;2022-07-10T14:23:54;2.30;;;0.70;;
71639;SDS011;60912;48.968;10.124;2022-07-10T14:26:21;2.60;;;0.80;;
71639;SDS011;60912;48.968;10.124;2022-07-10T14:28:47;3.30;;;0.77;;
71639;SDS011;60912;48.968;10.124;2022-07-10T14:31:13;2.63;;;0.70;;
71639;SDS011;60912;48.968;10.124;2022-07-10T14:33:39;1.70;;;0.55;;
71639;SDS011;60912;48.968;10.124;2022-07-10T14:36:04;3.40;;;1.10;;
71639;SDS011;60912;48.968;10.124;2022-07-10T14:38:31;2.50;;;0.75;;
71639;SDS011;60912;48.968;10.124;2022-07-10T14:40:56;3.13;;;0.80;;
71639;SDS011;60912;48.968;10.124;2022-07-10T14:43:22;2.80;;;0.73;;
71639;SDS011;60912;48.968;10.124;2022-07-10T14:45:49;4.28;;;1.35;;
71639;SDS011;60912;48.968;10.124;2022-07-10T14:48:14;3.67;;;0.90;;
71639;SDS011;60912;48.968;10.124;2022-07-10T14:50:41;2.70;;;1.17;;
71639;SDS011;60912;48.968;10.124;2022-07-10T14:53:07;4.82;;;0.95;;
71639;SDS011;60912;48.968;10.124;2022-07-10T14:55:33;5.00;;;0.97;;
71639;SDS011;60912;48.968;10.124;2022-07-10T14:57:59;3.17;;;0.70;;
71639;SDS011;60912;48.968;10.124;2022-07-10T15:00:24;3.80;;;0.63;;
71639;SDS011;60912;48.968;10.124;2022-07-10T15:02:50;2.33;;;0.60;;
71639;SDS011;60912;48.968;10.124;2022-07-10T15:05:15;4.20;;;0.80;;
71639;SDS011;60912;48.968;10.124;2022-07-10T15:07:41;3.03;;;0.70;;
71639;SDS011;60912;48.968;10.124;2022-07-10T15:10:06;3.70;;;0.60;;
71639;SDS011;60912;48.968;10.124;2022-07-10T15:12:37;3.33;;;0.82;;
71639;SDS011;60912;48.968;10.124;2022-07-10T15:15:04;4.05;;;0.63;;
71639;SDS011;60912;48.968;10.124;2022-07-10T15:17:33;2.00;;;0.68;;
71639;SDS011;60912;48.968;10.124;2022-07-10T15:19:59;2.23;;;0.60;;
71639;SDS011;60912;48.968;10.124;2022-07-10T15:22:24;6.63;;;1.00;;
71639;SDS011;60912;48.968;10.124;2022-07-10T15:24:49;3.17;;;0.70;;
71639;SDS011;60912;48.968;10.124;2022-07-10T15:27:15;2.90;;;0.60;;
71639;SDS011;60912;48.968;10.124;2022-07-10T15:29:41;2.80;;;0.70;;
71639;SDS011;60912;48.968;10.124;2022-07-10T15:32:07;3.27;;;0.63;;